Time;durP1;ratioP1;P1;durP2;ratioP2;P2;SDS_P1;SDS_P2;PMS_P1;PMS_P2;Temp;Humidity;BMP_temperature;BMP_pressure;BME280_temperature;BME280_humidity;BME280_pressure;Samples;Min_cycle;Max_cycle;Signal;HPM_P1;HPM_P2
2022/06/18 00:00:14;;;;;;;6.82;3.67;;;;;;;;;;5071795;28;20049;-67
2022/06/18 00:02:41;;;;;;;5.78;3.40;;;;;;;;;;5071753;28;20055;-68
2022/06/18 00:05:08;;;;;;;4.60;3.70;;;;;;;;;;5071650;28;20404;-67
2022/06/18 00:07:38;;;;;;;6.07;3.63;;;;;;;;;;5069847;28;20055;-68
2022/06/18 00:10:06;;;;;;;4.00;3.60;;;;;;;;;;5071641;28;20758;-70
2022/06/18 00:15:19;;;;;;;6.57;4.20;;;;;;;;;;5071256;28;20033;-68
2022/06/18 00:17:46;;;;;;;10.40;4.30;;;;;;;;;;5071582;28;20040;-70
2022/06/18 00:20:13;;;;;;;9.55;4.65;;;;;;;;;;5071479;28;20075;-70
2022/06/18 00:22:41;;;;;;;11.43;5.95;;;;;;;;;;5071377;28;20040;-69
2022/06/18 00:25:17;;;;;;;8.57;4.43;;;;;;;;;;5071353;28;20503;-69
2022/06/18 00:27:42;;;;;;;5.10;4.60;;;;;;;;;;5070505;28;20078;-69
2022/06/18 00:30:13;;;;;;;5.40;4.88;;;;;;;;;;5071291;28;20435;-70
2022/06/18 00:32:39;;;;;;;7.15;4.45;;;;;;;;;;5071542;28;20028;-70
2022/06/18 00:35:04;;;;;;;6.20;4.80;;;;;;;;;;5071113;28;20146;-70
2022/06/18 00:37:30;;;;;;;9.82;4.95;;;;;;;;;;5070519;28;20086;-70
2022/06/18 00:39:56;;;;;;;6.63;5.25;;;;;;;;;;5052818;28;20064;-70
2022/06/18 00:42:30;;;;;;;7.95;5.00;;;;;;;;;;5071073;28;20043;-68
2022/06/18 00:44:59;;;;;;;5.60;5.03;;;;;;;;;;5052814;28;20032;-69
2022/06/18 00:47:34;;;;;;;8.90;5.40;;;;;;;;;;5052607;28;20515;-68
2022/06/18 00:50:02;;;;;;;11.68;5.25;;;;;;;;;;5071194;28;20369;-69
2022/06/18 00:52:36;;;;;;;7.57;5.32;;;;;;;;;;5080231;28;20032;-68
2022/06/18 00:55:08;;;;;;;7.18;4.38;;;;;;;;;;5070835;28;20068;-69
2022/06/18 00:58:00;;;;;;;10.73;5.40;;;;;;;;;;5070267;28;20032;-68
2022/06/18 01:00:33;;;;;;;;;;;;;;;;;;5053126;28;20046;-68
2022/06/18 01:02:58;;;;;;;7.28;5.50;;;;;;;;;;5052724;28;19916;-68
2022/06/18 01:05:27;;;;;;;8.60;5.13;;;;;;;;;;5038268;28;20094;-68
2022/06/18 01:08:00;;;;;;;10.30;4.72;;;;;;;;;;5040920;28;20091;-67
2022/06/18 01:10:33;;;;;;;7.10;5.18;;;;;;;;;;5040521;28;20025;-67
2022/06/18 01:13:03;;;;;;;8.77;4.93;;;;;;;;;;5039774;28;20037;-68
2022/06/18 01:15:30;;;;;;;5.85;4.90;;;;;;;;;;5016742;28;20033;-67
2022/06/18 01:17:56;;;;;;;9.65;4.65;;;;;;;;;;5013244;28;20689;-67
2022/06/18 01:20:24;;;;;;;8.23;4.18;;;;;;;;;;5016888;28;20072;-68
2022/06/18 01:23:08;;;;;;;8.75;4.18;;;;;;;;;;5034692;28;20502;-70
2022/06/18 01:25:33;;;;;;;5.55;3.72;;;;;;;;;;5034393;28;20500;-68
2022/06/18 01:28:01;;;;;;;6.28;3.95;;;;;;;;;;5016735;28;20030;-69
2022/06/18 01:30:35;;;;;;;4.35;3.95;;;;;;;;;;5016818;28;20033;-68
2022/06/18 01:33:06;;;;;;;6.50;4.00;;;;;;;;;;5016954;28;20043;-68
2022/06/18 01:35:36;;;;;;;7.03;3.35;;;;;;;;;;5016367;28;20140;-69
2022/06/18 01:38:06;;;;;;;7.45;3.97;;;;;;;;;;5016399;28;20041;-68
2022/06/18 01:41:49;;;;;;;5.22;4.20;;;;;;;;;;5016755;28;20116;-69
2022/06/18 01:43:47;;;;;;;10.15;3.63;;;;;;;;;;5023575;28;20045;-68
2022/06/18 01:46:12;;;;;;;6.72;3.80;;;;;;;;;;5036073;28;20035;-69
2022/06/18 01:48:42;;;;;;;6.55;3.22;;;;;;;;;;5035868;28;20033;-69
2022/06/18 01:51:18;;;;;;;5.28;3.63;;;;;;;;;;5036292;28;20045;-69
2022/06/18 01:53:53;;;;;;;5.93;3.78;;;;;;;;;;5036080;28;20033;-69
2022/06/18 01:56:23;;;;;;;6.85;4.05;;;;;;;;;;5053763;28;20116;-69
2022/06/18 01:59:01;;;;;;;3.92;3.60;;;;;;;;;;5035571;28;20040;-69
2022/06/18 02:01:38;;;;;;;3.78;3.42;;;;;;;;;;5036100;28;20048;-70
2022/06/18 02:04:04;;;;;;;4.15;3.80;;;;;;;;;;5035957;28;20032;-69
2022/06/18 02:06:34;;;;;;;4.65;3.67;;;;;;;;;;5035672;28;20032;-69
2022/06/18 02:09:30;;;;;;;3.60;3.30;;;;;;;;;;5052583;28;20101;-69
2022/06/18 02:11:57;;;;;;;6.28;3.40;;;;;;;;;;5035557;28;20064;-70
2022/06/18 02:14:25;;;;;;;4.40;3.85;;;;;;;;;;5053547;28;20525;-69
2022/06/18 02:16:54;;;;;;;6.13;3.83;;;;;;;;;;5035637;28;20069;-69
2022/06/18 02:19:21;;;;;;;5.07;3.40;;;;;;;;;;5033711;28;20028;-69
2022/06/18 02:21:50;;;;;;;5.47;4.50;;;;;;;;;;5051773;28;20037;-69
2022/06/18 02:24:17;;;;;;;4.43;3.95;;;;;;;;;;5033959;28;20032;-69
2022/06/18 02:26:45;;;;;;;8.63;4.43;;;;;;;;;;5053192;28;20071;-69
2022/06/18 02:29:31;;;;;;;7.00;3.95;;;;;;;;;;5034036;28;20045;-69
2022/06/18 02:32:18;;;;;;;4.22;3.90;;;;;;;;;;5035616;28;20051;-69
2022/06/18 02:34:44;;;;;;;9.95;4.00;;;;;;;;;;5035489;28;20029;-69
2022/06/18 02:37:20;;;;;;;4.82;3.53;;;;;;;;;;5053378;28;20044;-69
2022/06/18 02:39:55;;;;;;;4.80;4.18;;;;;;;;;;5036569;28;20033;-69
2022/06/18 02:42:21;;;;;;;5.53;3.85;;;;;;;;;;5053230;28;20040;-69
2022/06/18 02:44:48;;;;;;;5.80;3.90;;;;;;;;;;5053058;28;20040;-70
2022/06/18 02:47:15;;;;;;;4.20;3.72;;;;;;;;;;5035056;28;20040;-69
2022/06/18 02:49:53;;;;;;;4.60;3.60;;;;;;;;;;5052675;28;20033;-69
2022/06/18 02:52:21;;;;;;;5.20;3.88;;;;;;;;;;5035296;28;20028;-71
2022/06/18 02:54:48;;;;;;;8.60;3.90;;;;;;;;;;5034967;28;20037;-70
2022/06/18 02:57:23;;;;;;;9.45;3.75;;;;;;;;;;5035018;28;20396;-68
2022/06/18 02:59:48;;;;;;;4.93;3.70;;;;;;;;;;5034983;28;20036;-69
2022/06/18 03:02:14;;;;;;;3.40;3.10;;;;;;;;;;5034949;28;20056;-71
2022/06/18 03:04:39;;;;;;;3.70;3.17;;;;;;;;;;5052572;28;20037;-69
2022/06/18 03:07:04;;;;;;;5.85;3.80;;;;;;;;;;5052709;28;20052;-67
2022/06/18 03:09:30;;;;;;;3.90;3.50;;;;;;;;;;5033233;28;20029;-68
2022/06/18 03:12:07;;;;;;;4.30;3.80;;;;;;;;;;5033943;28;20029;-68
2022/06/18 03:14:35;;;;;;;3.80;3.50;;;;;;;;;;5034588;28;20037;-68
2022/06/18 03:17:02;;;;;;;9.43;4.80;;;;;;;;;;5034714;28;20041;-68
2022/06/18 03:19:29;;;;;;;6.72;4.82;;;;;;;;;;5052051;28;20029;-68
2022/06/18 03:22:01;;;;;;;9.95;5.13;;;;;;;;;;5034476;28;20045;-68
2022/06/18 03:24:27;;;;;;;6.15;4.95;;;;;;;;;;5034459;28;20029;-67
2022/06/18 03:26:53;;;;;;;7.35;5.50;;;;;;;;;;5034285;28;20075;-68
2022/06/18 03:29:19;;;;;;;7.35;5.38;;;;;;;;;;5033771;28;20067;-67
2022/06/18 03:31:45;;;;;;;6.50;5.68;;;;;;;;;;5034501;28;20029;-68
2022/06/18 03:34:11;;;;;;;5.63;4.93;;;;;;;;;;5052232;28;20179;-68
2022/06/18 03:36:37;;;;;;;7.50;5.57;;;;;;;;;;5052084;28;20503;-67
2022/06/18 03:39:04;;;;;;;7.25;5.72;;;;;;;;;;5017106;28;20029;-68
2022/06/18 03:41:30;;;;;;;6.30;5.70;;;;;;;;;;5034081;28;20132;-67
2022/06/18 03:43:56;;;;;;;6.05;5.25;;;;;;;;;;5052049;28;20025;-68
2022/06/18 03:46:23;;;;;;;5.45;4.88;;;;;;;;;;5033983;28;20033;-67
2022/06/18 03:48:57;;;;;;;6.50;4.95;;;;;;;;;;5033708;28;20508;-68
2022/06/18 03:51:26;;;;;;;6.50;5.30;;;;;;;;;;5033881;28;20032;-67
2022/06/18 03:53:53;;;;;;;7.53;5.28;;;;;;;;;;5033750;28;20033;-68
2022/06/18 03:56:22;;;;;;;5.50;5.00;;;;;;;;;;5051438;28;20033;-67
2022/06/18 03:58:48;;;;;;;5.70;5.10;;;;;;;;;;5033104;28;20481;-68
2022/06/18 04:01:18;;;;;;;9.98;4.90;;;;;;;;;;5033549;28;20029;-68
2022/06/18 04:03:45;;;;;;;9.77;5.72;;;;;;;;;;5017360;28;20032;-68
2022/06/18 04:06:18;;;;;;;11.05;5.28;;;;;;;;;;5033398;28;20036;-68
2022/06/18 04:08:45;;;;;;;7.25;5.13;;;;;;;;;;5032904;28;20033;-68
2022/06/18 04:11:22;;;;;;;5.95;5.20;;;;;;;;;;5033648;28;20076;-68
2022/06/18 04:13:48;;;;;;;13.57;5.78;;;;;;;;;;5033418;28;20421;-68
2022/06/18 04:16:33;;;;;;;7.40;5.20;;;;;;;;;;5036978;28;20052;-68
2022/06/18 04:19:05;;;;;;;12.27;5.10;;;;;;;;;;5032741;28;20508;-68
2022/06/18 04:21:31;;;;;;;7.25;5.25;;;;;;;;;;5033533;28;20048;-68
2022/06/18 04:23:58;;;;;;;5.75;5.18;;;;;;;;;;5033432;28;20587;-68
2022/06/18 04:26:24;;;;;;;7.10;5.28;;;;;;;;;;5033088;28;20095;-68
2022/06/18 04:28:49;;;;;;;8.13;4.85;;;;;;;;;;5032597;28;20500;-68
2022/06/18 04:31:17;;;;;;;6.95;4.75;;;;;;;;;;5033322;28;20131;-69
2022/06/18 04:33:44;;;;;;;5.18;4.68;;;;;;;;;;5033362;28;20060;-67
2022/06/18 04:36:34;;;;;;;7.78;5.50;;;;;;;;;;5032893;28;20666;-70
2022/06/18 04:39:13;;;;;;;4.53;4.13;;;;;;;;;;5035036;28;20527;-67
2022/06/18 04:41:58;;;;;;;4.95;4.50;;;;;;;;;;5012156;28;20485;-67
2022/06/18 04:44:25;;;;;;;5.78;4.68;;;;;;;;;;5013069;28;20466;-68
2022/06/18 04:46:56;;;;;;;6.47;5.55;;;;;;;;;;5013315;28;20400;-67
2022/06/18 04:49:22;;;;;;;5.72;4.80;;;;;;;;;;5012846;28;20040;-67
2022/06/18 04:51:48;;;;;;;8.07;4.43;;;;;;;;;;5013405;28;20067;-69
2022/06/18 04:54:21;;;;;;;5.00;4.35;;;;;;;;;;5019191;28;20025;-68
2022/06/18 04:56:47;;;;;;;12.65;4.50;;;;;;;;;;5019499;28;20033;-67
2022/06/18 04:59:15;;;;;;;4.10;3.70;;;;;;;;;;5019191;28;20033;-69
2022/06/18 05:01:43;;;;;;;4.25;3.85;;;;;;;;;;5019692;28;20048;-67
2022/06/18 05:04:40;;;;;;;8.13;4.20;;;;;;;;;;5037099;28;20037;-68
2022/06/18 05:07:26;;;;;;;5.45;3.15;;;;;;;;;;4987221;28;20068;-68
2022/06/18 05:10:10;;;;;;;4.60;3.38;;;;;;;;;;5023107;28;20044;-67
2022/06/18 05:12:52;;;;;;;5.68;3.38;;;;;;;;;;5019581;28;20033;-67
2022/06/18 05:15:38;;;;;;;3.50;2.95;;;;;;;;;;5037240;28;20397;-67
2022/06/18 05:18:04;;;;;;;4.60;2.70;;;;;;;;;;5018891;28;20041;-67
2022/06/18 05:20:30;;;;;;;3.42;2.95;;;;;;;;;;5019454;28;20033;-69
2022/06/18 05:22:58;;;;;;;3.85;2.67;;;;;;;;;;5019588;28;20477;-69
2022/06/18 05:25:24;;;;;;;2.90;2.55;;;;;;;;;;5019270;28;20064;-68
2022/06/18 05:27:49;;;;;;;4.85;2.45;;;;;;;;;;5018518;28;20029;-70
2022/06/18 05:30:41;;;;;;;6.07;2.75;;;;;;;;;;5034197;28;20033;-67
2022/06/18 05:33:08;;;;;;;2.33;2.15;;;;;;;;;;5019519;28;20043;-68
2022/06/18 05:35:41;;;;;;;3.35;2.30;;;;;;;;;;5019864;28;20084;-68
2022/06/18 05:38:14;;;;;;;2.28;2.05;;;;;;;;;;5018458;28;20037;-70
2022/06/18 05:40:39;;;;;;;3.55;2.25;;;;;;;;;;5036061;28;20043;-67
2022/06/18 05:43:04;;;;;;;6.78;2.38;;;;;;;;;;5037246;28;20037;-67
2022/06/18 05:45:30;;;;;;;5.15;2.65;;;;;;;;;;5019126;28;20064;-69
2022/06/18 05:47:57;;;;;;;2.97;2.13;;;;;;;;;;5018658;28;20052;-68
2022/06/18 05:50:23;;;;;;;4.07;2.28;;;;;;;;;;5019444;28;20401;-68
2022/06/18 05:52:48;;;;;;;2.95;2.13;;;;;;;;;;5037051;28;20064;-68
2022/06/18 05:55:37;;;;;;;3.42;2.28;;;;;;;;;;5035683;28;20033;-67
2022/06/18 05:58:13;;;;;;;4.35;2.30;;;;;;;;;;5036475;28;20068;-68
2022/06/18 06:00:46;;;;;;;4.07;2.22;;;;;;;;;;5019374;28;20041;-68
2022/06/18 06:03:11;;;;;;;4.68;1.98;;;;;;;;;;5019555;28;20037;-68
2022/06/18 06:05:37;;;;;;;3.45;2.03;;;;;;;;;;5016094;28;20048;-68
2022/06/18 06:08:03;;;;;;;2.63;2.08;;;;;;;;;;5015612;28;20037;-70
2022/06/18 06:13:18;;;;;;;3.15;2.00;;;;;;;;;;5016139;28;20040;-67
2022/06/18 06:15:44;;;;;;;2.75;2.08;;;;;;;;;;5015662;28;20048;-67
2022/06/18 06:18:12;;;;;;;2.10;1.80;;;;;;;;;;5015223;28;20029;-68
2022/06/18 06:20:40;;;;;;;2.78;2.08;;;;;;;;;;5033610;28;20064;-69
2022/06/18 06:23:08;;;;;;;3.25;2.08;;;;;;;;;;5033765;28;20069;-68
2022/06/18 06:25:34;;;;;;;3.83;2.42;;;;;;;;;;5033548;28;20030;-68
2022/06/18 06:28:00;;;;;;;4.78;2.17;;;;;;;;;;5032744;28;20038;-68
2022/06/18 06:30:26;;;;;;;8.02;2.13;;;;;;;;;;5033639;28;20052;-69
2022/06/18 06:32:51;;;;;;;3.83;2.38;;;;;;;;;;5033894;28;20037;-68
2022/06/18 06:35:17;;;;;;;1.67;1.58;;;;;;;;;;5033394;28;20042;-68
2022/06/18 06:37:42;;;;;;;2.90;1.58;;;;;;;;;;5033110;28;20033;-68
2022/06/18 06:40:09;;;;;;;2.78;1.70;;;;;;;;;;5033346;28;20057;-69
2022/06/18 06:42:49;;;;;;;1.58;1.48;;;;;;;;;;5033292;28;20123;-68
2022/06/18 06:45:18;;;;;;;2.00;1.67;;;;;;;;;;5033190;28;20160;-68
2022/06/18 06:47:48;;;;;;;2.78;1.70;;;;;;;;;;5016370;28;20037;-69
2022/06/18 06:50:16;;;;;;;;;;;;;;;;;;5019536;28;20045;-69
2022/06/18 06:52:43;;;;;;;3.63;1.90;;;;;;;;;;5036177;28;20000;-70
2022/06/18 06:58:09;;;;;;;2.00;1.80;;;;;;;;;;5032526;28;20048;-67
2022/06/18 07:00:39;;;;;;;2.55;2.15;;;;;;;;;;5033115;28;20034;-68
2022/06/18 07:03:05;;;;;;;4.63;1.98;;;;;;;;;;5033055;28;20597;-69
2022/06/18 07:05:30;;;;;;;6.53;1.88;;;;;;;;;;5032770;28;20116;-69
2022/06/18 07:07:56;;;;;;;3.22;1.55;;;;;;;;;;5014511;28;20068;-69
2022/06/18 07:10:21;;;;;;;1.95;1.70;;;;;;;;;;5015186;28;20029;-69
2022/06/18 07:12:47;;;;;;;5.70;2.03;;;;;;;;;;5032718;28;20667;-68
2022/06/18 07:15:13;;;;;;;1.90;1.80;;;;;;;;;;5032315;28;20037;-69
2022/06/18 07:17:40;;;;;;;2.60;1.92;;;;;;;;;;5032473;28;20053;-69
2022/06/18 07:20:09;;;;;;;1.75;1.65;;;;;;;;;;5036086;28;20082;-69
2022/06/18 07:22:34;;;;;;;4.35;1.80;;;;;;;;;;5036072;28;20026;-69
2022/06/18 07:25:01;;;;;;;2.03;1.70;;;;;;;;;;5042244;28;20056;-70
2022/06/18 07:27:29;;;;;;;1.95;1.80;;;;;;;;;;5042937;28;20108;-69
2022/06/18 07:29:55;;;;;;;3.15;1.77;;;;;;;;;;5047152;28;20036;-69
2022/06/18 07:32:21;;;;;;;3.78;1.80;;;;;;;;;;5043002;28;20025;-71
2022/06/18 07:34:48;;;;;;;1.55;1.42;;;;;;;;;;5018024;28;20057;-68
2022/06/18 07:37:13;;;;;;;3.35;2.00;;;;;;;;;;5017852;28;20088;-69
2022/06/18 07:39:39;;;;;;;3.40;1.90;;;;;;;;;;5016638;28;20551;-70
2022/06/18 07:42:05;;;;;;;2.05;1.95;;;;;;;;;;5032174;28;20038;-70
2022/06/18 07:44:31;;;;;;;1.83;1.40;;;;;;;;;;5014381;28;20042;-70
2022/06/18 07:47:03;;;;;;;3.72;1.70;;;;;;;;;;5031935;28;20033;-70
2022/06/18 07:49:29;;;;;;;2.38;1.60;;;;;;;;;;5031629;28;20034;-69
2022/06/18 07:51:54;;;;;;;2.08;1.35;;;;;;;;;;5019522;28;20041;-69
2022/06/18 07:54:20;;;;;;;1.70;1.60;;;;;;;;;;5042717;28;20051;-70
2022/06/18 07:56:46;;;;;;;1.98;1.45;;;;;;;;;;5024752;28;20033;-67
2022/06/18 07:59:12;;;;;;;4.13;1.48;;;;;;;;;;5042018;28;20044;-69
2022/06/18 08:01:38;;;;;;;1.70;1.60;;;;;;;;;;5042434;28;20041;-70
2022/06/18 08:04:06;;;;;;;5.03;1.73;;;;;;;;;;5042261;28;20036;-70
2022/06/18 08:06:32;;;;;;;5.22;1.83;;;;;;;;;;5042344;28;20033;-69
2022/06/18 08:08:58;;;;;;;5.22;1.67;;;;;;;;;;5023988;28;20127;-69
2022/06/18 08:11:25;;;;;;;3.58;2.10;;;;;;;;;;5042351;28;20445;-69
2022/06/18 08:13:52;;;;;;;6.22;1.70;;;;;;;;;;5042450;28;20033;-69
2022/06/18 08:16:18;;;;;;;6.40;1.60;;;;;;;;;;5041859;28;20059;-70
2022/06/18 08:18:44;;;;;;;5.10;2.00;;;;;;;;;;5023493;28;20071;-70
2022/06/18 08:21:14;;;;;;;3.90;1.60;;;;;;;;;;5039456;28;20032;-70
2022/06/18 08:23:40;;;;;;;3.55;1.90;;;;;;;;;;5022124;28;20071;-69
2022/06/18 08:26:06;;;;;;;3.20;1.42;;;;;;;;;;5038630;28;20486;-70
2022/06/18 08:28:33;;;;;;;2.20;1.77;;;;;;;;;;5036667;28;20029;-69
2022/06/18 08:31:01;;;;;;;1.73;1.50;;;;;;;;;;5038976;28;20047;-68
2022/06/18 08:33:29;;;;;;;2.22;1.60;;;;;;;;;;5039120;28;20501;-68
2022/06/18 08:35:57;;;;;;;3.00;1.60;;;;;;;;;;5041321;28;20039;-70
2022/06/18 08:38:23;;;;;;;1.58;1.40;;;;;;;;;;5040389;28;20029;-69
2022/06/18 08:40:48;;;;;;;2.08;1.42;;;;;;;;;;5041231;28;20075;-70
2022/06/18 08:43:23;;;;;;;2.80;1.70;;;;;;;;;;5040233;28;20060;-69
2022/06/18 08:46:09;;;;;;;6.32;1.40;;;;;;;;;;5040726;28;20048;-70
2022/06/18 08:49:03;;;;;;;3.75;1.55;;;;;;;;;;5040204;28;20091;-70
2022/06/18 08:51:41;;;;;;;4.15;1.35;;;;;;;;;;5041454;28;20446;-70
2022/06/18 08:54:25;;;;;;;1.85;1.58;;;;;;;;;;5040684;28;20447;-70
2022/06/18 08:57:01;;;;;;;6.50;1.77;;;;;;;;;;5038502;28;20044;-70
2022/06/18 09:00:04;;;;;;;4.13;1.63;;;;;;;;;;5038078;28;20041;-72
2022/06/18 09:02:47;;;;;;;1.58;1.40;;;;;;;;;;5038638;28;20265;-71
2022/06/18 09:05:39;;;;;;;1.63;1.52;;;;;;;;;;5020820;28;20659;-72
2022/06/18 09:08:25;;;;;;;2.65;1.30;;;;;;;;;;5021486;28;20151;-69
2022/06/18 09:11:09;;;;;;;1.60;1.50;;;;;;;;;;5021117;28;20032;-71
2022/06/18 09:13:47;;;;;;;3.38;1.50;;;;;;;;;;5038921;28;20044;-72
2022/06/18 09:16:18;;;;;;;2.78;1.40;;;;;;;;;;5005276;28;20070;-70
2022/06/18 09:18:53;;;;;;;;;;;;;;;;;;5039882;28;20076;-71
2022/06/18 09:21:24;;;;;;;2.15;1.38;;;;;;;;;;5022206;28;20368;-71
2022/06/18 09:23:59;;;;;;;4.97;1.35;;;;;;;;;;5039313;28;20037;-70
2022/06/18 09:26:36;;;;;;;4.50;1.33;;;;;;;;;;5040366;28;20397;-70
2022/06/18 09:29:10;;;;;;;9.50;1.30;;;;;;;;;;5039533;28;20068;-70
2022/06/18 09:31:44;;;;;;;1.35;1.08;;;;;;;;;;5040245;28;20037;-70
2022/06/18 09:34:29;;;;;;;3.90;1.20;;;;;;;;;;5040760;28;20037;-69
2022/06/18 09:37:04;;;;;;;1.45;1.20;;;;;;;;;;5040036;28;20036;-71
2022/06/18 09:39:36;;;;;;;1.10;1.00;;;;;;;;;;5040797;28;20416;-70
2022/06/18 09:42:04;;;;;;;1.98;1.10;;;;;;;;;;5044090;28;20033;-70
2022/06/18 09:44:56;;;;;;;1.23;1.00;;;;;;;;;;5026028;28;20524;-70
2022/06/18 09:47:41;;;;;;;4.53;0.98;;;;;;;;;;5043969;28;20044;-71
2022/06/18 09:50:37;;;;;;;1.10;1.00;;;;;;;;;;5042723;28;20147;-70
2022/06/18 09:53:16;;;;;;;3.35;0.98;;;;;;;;;;5026446;28;20036;-71
2022/06/18 09:55:51;;;;;;;1.10;0.95;;;;;;;;;;5043776;28;20032;-71
2022/06/18 09:58:27;;;;;;;0.80;0.80;;;;;;;;;;5043267;28;20139;-70
2022/06/18 10:00:55;;;;;;;0.80;0.80;;;;;;;;;;5024775;28;20056;-71
2022/06/18 10:09:02;;;;;;;3.20;1.07;;;;;;;;;;5043307;28;20040;-69
2022/06/18 10:11:27;;;;;;;3.30;1.13;;;;;;;;;;5041705;28;20037;-68
2022/06/18 10:14:15;;;;;;;5.47;1.00;;;;;;;;;;5042566;28;20048;-67
2022/06/18 10:16:47;;;;;;;3.30;0.80;;;;;;;;;;5038867;28;20040;-69
2022/06/18 10:19:18;;;;;;;3.45;1.00;;;;;;;;;;5041012;28;20404;-70
2022/06/18 10:21:57;;;;;;;1.67;1.00;;;;;;;;;;5042346;28;20568;-69
2022/06/18 10:24:36;;;;;;;1.42;0.85;;;;;;;;;;5041511;28;20264;-70
2022/06/18 10:27:18;;;;;;;1.20;1.00;;;;;;;;;;5040476;28;20029;-70
2022/06/18 10:30:10;;;;;;;1.60;1.10;;;;;;;;;;5041434;28;20089;-70
2022/06/18 10:32:37;;;;;;;1.10;0.90;;;;;;;;;;5023898;28;20167;-70
2022/06/18 10:35:11;;;;;;;1.35;1.08;;;;;;;;;;5041341;28;20051;-71
2022/06/18 10:38:05;;;;;;;0.98;0.98;;;;;;;;;;5041536;28;20111;-68
2022/06/18 10:41:08;;;;;;;1.60;1.20;;;;;;;;;;5041756;28;20037;-70
2022/06/18 10:44:02;;;;;;;1.38;1.00;;;;;;;;;;5022101;28;20477;-71
2022/06/18 10:46:27;;;;;;;3.92;1.08;;;;;;;;;;5039510;28;20595;-69
2022/06/18 10:49:04;;;;;;;2.45;1.00;;;;;;;;;;5040930;28;20043;-70
2022/06/18 10:51:44;;;;;;;1.27;1.10;;;;;;;;;;5041932;28;20036;-69
2022/06/18 10:54:09;;;;;;;2.45;1.05;;;;;;;;;;5042193;28;20128;-71
2022/06/18 10:56:50;;;;;;;3.22;1.10;;;;;;;;;;5020098;28;20116;-69
2022/06/18 10:59:27;;;;;;;1.27;0.93;;;;;;;;;;5022254;28;21176;-70
2022/06/18 11:01:52;;;;;;;4.30;1.50;;;;;;;;;;5023738;28;20041;-68
2022/06/18 11:04:18;;;;;;;1.08;0.98;;;;;;;;;;5023499;28;20060;-68
2022/06/18 11:06:48;;;;;;;2.42;1.00;;;;;;;;;;5039725;28;20519;-68
2022/06/18 11:09:27;;;;;;;1.00;0.95;;;;;;;;;;5040063;28;20045;-68
2022/06/18 11:11:59;;;;;;;3.75;1.08;;;;;;;;;;5041384;28;20088;-68
2022/06/18 11:14:25;;;;;;;2.67;1.10;;;;;;;;;;5041451;28;20045;-69
2022/06/18 11:16:55;;;;;;;3.70;1.10;;;;;;;;;;5041551;28;20040;-67
2022/06/18 11:19:32;;;;;;;5.97;1.02;;;;;;;;;;5039810;28;20037;-68
2022/06/18 11:22:15;;;;;;;5.63;1.23;;;;;;;;;;5041677;28;20546;-69
2022/06/18 11:24:43;;;;;;;2.50;1.10;;;;;;;;;;5039579;28;20041;-68
2022/06/18 11:27:18;;;;;;;5.80;1.20;;;;;;;;;;5041089;28;20041;-69
2022/06/18 11:29:53;;;;;;;1.23;0.95;;;;;;;;;;5039389;28;20052;-68
2022/06/18 11:32:24;;;;;;;2.83;1.20;;;;;;;;;;5039804;28;20029;-68
2022/06/18 11:35:13;;;;;;;2.13;1.20;;;;;;;;;;5040751;28;20033;-68
2022/06/18 11:37:40;;;;;;;1.92;1.25;;;;;;;;;;5026722;28;20439;-69
2022/06/18 11:40:11;;;;;;;1.88;0.98;;;;;;;;;;5040017;28;20044;-69
2022/06/18 11:42:41;;;;;;;12.52;1.10;;;;;;;;;;5037002;28;20152;-68
2022/06/18 11:45:19;;;;;;;3.42;1.33;;;;;;;;;;5040798;28;20051;-69
2022/06/18 11:47:58;;;;;;;1.58;1.10;;;;;;;;;;5040597;28;20037;-68
2022/06/18 11:50:30;;;;;;;1.80;1.15;;;;;;;;;;5039874;28;20098;-69
2022/06/18 11:53:28;;;;;;;2.22;1.10;;;;;;;;;;5041241;28;20106;-69
2022/06/18 11:55:56;;;;;;;4.30;0.90;;;;;;;;;;5006926;28;20056;-69
2022/06/18 11:58:26;;;;;;;1.23;1.00;;;;;;;;;;5040882;28;20493;-69
2022/06/18 12:01:16;;;;;;;3.57;1.13;;;;;;;;;;5039754;28;20410;-70
2022/06/18 12:03:53;;;;;;;1.60;1.10;;;;;;;;;;5038576;28;20085;-69
2022/06/18 12:06:40;;;;;;;1.73;1.10;;;;;;;;;;5039281;28;20037;-69
2022/06/18 12:09:09;;;;;;;1.52;1.10;;;;;;;;;;5038986;28;20043;-69
2022/06/18 12:11:53;;;;;;;2.40;1.20;;;;;;;;;;5044420;28;20032;-70
2022/06/18 12:14:26;;;;;;;3.22;1.13;;;;;;;;;;5043926;28;20032;-69
2022/06/18 12:17:06;;;;;;;2.72;1.20;;;;;;;;;;5042354;28;20040;-69
2022/06/18 12:19:42;;;;;;;3.40;1.33;;;;;;;;;;5021927;28;20059;-69
2022/06/18 12:22:18;;;;;;;1.35;1.10;;;;;;;;;;5040923;28;20033;-68
2022/06/18 12:25:06;;;;;;;2.28;0.93;;;;;;;;;;5040020;28;20123;-68
2022/06/18 12:27:38;;;;;;;1.48;1.00;;;;;;;;;;5039026;28;20072;-67
2022/06/18 12:30:04;;;;;;;4.10;1.00;;;;;;;;;;5039576;28;20045;-68
2022/06/18 12:32:57;;;;;;;1.38;1.10;;;;;;;;;;5039961;28;20082;-68
2022/06/18 12:35:40;;;;;;;2.25;0.90;;;;;;;;;;5037878;28;20037;-69
2022/06/18 12:38:28;;;;;;;1.33;1.10;;;;;;;;;;5038929;28;20102;-68
2022/06/18 12:41:15;;;;;;;4.18;1.20;;;;;;;;;;5039000;28;20553;-68
2022/06/18 12:43:57;;;;;;;1.80;0.93;;;;;;;;;;5038744;28;20040;-68
2022/06/18 12:46:27;;;;;;;4.75;1.17;;;;;;;;;;5037962;28;20060;-68
2022/06/18 12:49:04;;;;;;;1.90;0.90;;;;;;;;;;5038045;28;20090;-68
2022/06/18 12:52:02;;;;;;;2.25;1.15;;;;;;;;;;5040509;28;20123;-68
2022/06/18 12:55:02;;;;;;;2.95;1.20;;;;;;;;;;5033602;28;20056;-68
2022/06/18 12:57:33;;;;;;;2.90;1.20;;;;;;;;;;5039365;28;20041;-68
2022/06/18 13:00:18;;;;;;;1.77;1.20;;;;;;;;;;5039736;28;20051;-68
2022/06/18 13:03:18;;;;;;;1.83;1.10;;;;;;;;;;5040824;28;20044;-68
2022/06/18 13:05:49;;;;;;;3.78;1.27;;;;;;;;;;5040680;28;21119;-70
2022/06/18 13:08:36;;;;;;;5.68;1.10;;;;;;;;;;5039746;28;20852;-68
2022/06/18 13:11:25;;;;;;;5.53;1.20;;;;;;;;;;5040651;28;20047;-69
2022/06/18 13:13:59;;;;;;;2.15;1.25;;;;;;;;;;5038074;28;20029;-69
2022/06/18 13:16:47;;;;;;;3.95;1.20;;;;;;;;;;5044238;28;20029;-68
2022/06/18 13:19:27;;;;;;;5.47;1.08;;;;;;;;;;5043012;28;20140;-69
2022/06/18 13:21:53;;;;;;;4.18;1.25;;;;;;;;;;5044295;28;20039;-69
2022/06/18 13:30:04;;;;;;;3.17;1.30;;;;;;;;;;5043063;28;20029;-69
2022/06/18 13:32:39;;;;;;;3.60;1.23;;;;;;;;;;5043884;28;20059;-69
2022/06/18 13:35:09;;;;;;;3.25;1.30;;;;;;;;;;5044206;28;20064;-71
2022/06/18 13:37:37;;;;;;;2.60;1.00;;;;;;;;;;5044047;28;20029;-68
2022/06/18 13:40:19;;;;;;;2.65;1.23;;;;;;;;;;5043473;28;20047;-68
2022/06/18 13:43:14;;;;;;;9.07;1.17;;;;;;;;;;5043772;28;20037;-69
2022/06/18 13:45:42;;;;;;;2.42;1.10;;;;;;;;;;5039462;28;20384;-70
2022/06/18 13:48:19;;;;;;;5.55;1.27;;;;;;;;;;5043269;28;20033;-70
2022/06/18 13:50:47;;;;;;;3.30;1.30;;;;;;;;;;5043377;28;20107;-70
2022/06/18 13:53:33;;;;;;;11.82;1.30;;;;;;;;;;5043294;28;20091;-71
2022/06/18 13:56:18;;;;;;;4.93;1.38;;;;;;;;;;5025224;28;20036;-70
2022/06/18 13:58:50;;;;;;;3.30;1.20;;;;;;;;;;5043567;28;20449;-71
2022/06/18 14:01:18;;;;;;;1.70;1.00;;;;;;;;;;5025553;28;20818;-71
2022/06/18 14:03:48;;;;;;;4.30;1.17;;;;;;;;;;5025316;28;20045;-72
2022/06/18 14:06:16;;;;;;;3.72;1.30;;;;;;;;;;5043180;28;20033;-71
2022/06/18 14:08:46;;;;;;;7.07;1.65;;;;;;;;;;5042963;28;20082;-70
2022/06/18 14:11:13;;;;;;;9.13;1.50;;;;;;;;;;5025829;28;20507;-71
2022/06/18 14:13:48;;;;;;;10.07;1.73;;;;;;;;;;5042301;28;20858;-71
2022/06/18 14:16:47;;;;;;;5.85;1.33;;;;;;;;;;5043255;28;20520;-70
2022/06/18 14:19:30;;;;;;;4.85;1.23;;;;;;;;;;5042531;28;20107;-69
2022/06/18 14:22:14;;;;;;;2.45;1.23;;;;;;;;;;5043250;28;20041;-70
2022/06/18 14:25:01;;;;;;;5.10;1.23;;;;;;;;;;5044259;28;20036;-70
2022/06/18 14:27:30;;;;;;;3.60;1.15;;;;;;;;;;5042161;28;20037;-70
2022/06/18 14:29:59;;;;;;;6.95;1.52;;;;;;;;;;5043721;28;20047;-70
2022/06/18 14:32:55;;;;;;;5.28;1.40;;;;;;;;;;5044856;28;20147;-70
2022/06/18 14:35:36;;;;;;;52.55;13.52;;;;;;;;;;5032044;28;20056;-71
2022/06/18 14:38:05;;;;;;;4.15;1.67;;;;;;;;;;5043134;28;20048;-70
2022/06/18 14:41:34;;;;;;;123.50;31.25;;;;;;;;;;5042746;28;20037;-71
2022/06/18 14:43:31;;;;;;;;;;;;;;;;;;5043954;28;20037;-71
2022/06/18 14:46:34;;;;;;;8.85;2.83;;;;;;;;;;5042601;28;19928;-70
2022/06/18 14:49:27;;;;;;;8.88;1.50;;;;;;;;;;5042407;28;20061;-71
2022/06/18 14:52:27;;;;;;;6.25;1.63;;;;;;;;;;5043120;28;20048;-71
2022/06/18 14:55:26;;;;;;;7.40;1.77;;;;;;;;;;5042773;28;20033;-72
2022/06/18 14:58:40;;;;;;;6.38;1.80;;;;;;;;;;5030614;28;20489;-72
2022/06/18 15:01:23;;;;;;;9.15;1.55;;;;;;;;;;5042650;28;20481;-70
2022/06/18 15:04:18;;;;;;;4.78;1.70;;;;;;;;;;5042463;28;20059;-70
2022/06/18 15:06:44;;;;;;;13.48;2.30;;;;;;;;;;5007190;28;20046;-70
2022/06/18 15:09:13;;;;;;;6.93;1.60;;;;;;;;;;5041207;28;20087;-69
2022/06/18 15:11:50;;;;;;;6.32;1.95;;;;;;;;;;5042369;28;20098;-70
2022/06/18 15:14:23;;;;;;;11.55;1.75;;;;;;;;;;5042148;28;20040;-71
2022/06/18 15:19:34;;;;;;;10.20;2.40;;;;;;;;;;5022414;28;20102;-71
2022/06/18 15:22:05;;;;;;;10.00;1.92;;;;;;;;;;5042011;28;20044;-71
2022/06/18 15:27:32;;;;;;;9.15;2.58;;;;;;;;;;5041077;28;20029;-70
2022/06/18 15:30:02;;;;;;;7.75;1.73;;;;;;;;;;5041319;28;20045;-70
2022/06/18 15:32:30;;;;;;;8.65;2.00;;;;;;;;;;5041136;28;20528;-70
2022/06/18 15:35:16;;;;;;;3.97;1.40;;;;;;;;;;5041281;28;20040;-70
2022/06/18 15:37:54;;;;;;;3.83;1.23;;;;;;;;;;5040761;28;20059;-70
2022/06/18 15:40:40;;;;;;;5.40;1.40;;;;;;;;;;5041109;28;20087;-70
2022/06/18 15:43:17;;;;;;;5.53;1.50;;;;;;;;;;5039927;28;20382;-70
2022/06/18 15:45:49;;;;;;;2.67;1.30;;;;;;;;;;5040550;28;20085;-70